sensor_id;sensor_type;location;lat;lon;timestamp;P1;durP1;ratioP1;P2;durP2;ratioP2
76848;SDS011;65814;51.134;16.980;2023-12-20T00:01:48;9.60;;;6.30;;
76848;SDS011;65814;51.134;16.980;2023-12-20T00:04:17;11.00;;;6.90;;
76848;SDS011;65814;51.134;16.980;2023-12-20T00:06:45;8.10;;;5.90;;
76848;SDS011;65814;51.134;16.980;2023-12-20T00:09:15;8.50;;;6.70;;
76848;SDS011;65814;51.134;16.980;2023-12-20T00:11:44;8.30;;;6.40;;
76848;SDS011;65814;51.134;16.980;2023-12-20T00:14:12;8.90;;;6.50;;
76848;SDS011;65814;51.134;16.980;2023-12-20T00:16:40;10.10;;;6.50;;
76848;SDS011;65814;51.134;16.980;2023-12-20T00:19:08;7.90;;;5.90;;
76848;SDS011;65814;51.134;16.980;2023-12-20T00:21:36;10.00;;;6.40;;
76848;SDS011;65814;51.134;16.980;2023-12-20T00:24:04;8.10;;;6.60;;
76848;SDS011;65814;51.134;16.980;2023-12-20T00:26:32;9.30;;;6.40;;
76848;SDS011;65814;51.134;16.980;2023-12-20T00:29:00;9.80;;;7.00;;
76848;SDS011;65814;51.134;16.980;2023-12-20T00:31:28;11.60;;;6.80;;
76848;SDS011;65814;51.134;16.980;2023-12-20T00:33:56;8.90;;;6.50;;
76848;SDS011;65814;51.134;16.980;2023-12-20T00:36:25;10.40;;;6.30;;
76848;SDS011;65814;51.134;16.980;2023-12-20T00:38:53;10.50;;;6.70;;
76848;SDS011;65814;51.134;16.980;2023-12-20T00:41:21;8.00;;;5.70;;
76848;SDS011;65814;51.134;16.980;2023-12-20T00:43:50;7.50;;;6.30;;
76848;SDS011;65814;51.134;16.980;2023-12-20T00:46:18;8.60;;;6.50;;
76848;SDS011;65814;51.134;16.980;2023-12-20T00:48:47;10.80;;;6.40;;
76848;SDS011;65814;51.134;16.980;2023-12-20T00:51:15;6.70;;;5.50;;
76848;SDS011;65814;51.134;16.980;2023-12-20T00:53:43;9.30;;;6.40;;
76848;SDS011;65814;51.134;16.980;2023-12-20T00:56:11;8.60;;;5.70;;
76848;SDS011;65814;51.134;16.980;2023-12-20T00:58:39;9.00;;;6.00;;
76848;SDS011;65814;51.134;16.980;2023-12-20T01:01:07;8.00;;;5.60;;
76848;SDS011;65814;51.134;16.980;2023-12-20T01:03:35;8.80;;;6.10;;
76848;SDS011;65814;51.134;16.980;2023-12-20T01:06:04;7.80;;;5.60;;
76848;SDS011;65814;51.134;16.980;2023-12-20T01:08:32;8.80;;;6.00;;
76848;SDS011;65814;51.134;16.980;2023-12-20T01:11:05;7.30;;;5.50;;
76848;SDS011;65814;51.134;16.980;2023-12-20T01:13:33;8.30;;;5.20;;
76848;SDS011;65814;51.134;16.980;2023-12-20T01:16:01;7.30;;;4.80;;
76848;SDS011;65814;51.134;16.980;2023-12-20T01:18:30;7.40;;;5.50;;
76848;SDS011;65814;51.134;16.980;2023-12-20T01:21:01;7.80;;;5.40;;
76848;SDS011;65814;51.134;16.980;2023-12-20T01:23:31;8.00;;;5.90;;
76848;SDS011;65814;51.134;16.980;2023-12-20T01:26:00;7.00;;;5.10;;
76848;SDS011;65814;51.134;16.980;2023-12-20T01:28:28;6.50;;;5.50;;
76848;SDS011;65814;51.134;16.980;2023-12-20T01:30:56;7.40;;;5.50;;
76848;SDS011;65814;51.134;16.980;2023-12-20T01:33:25;7.00;;;5.00;;
76848;SDS011;65814;51.134;16.980;2023-12-20T01:35:53;6.70;;;5.00;;
76848;SDS011;65814;51.134;16.980;2023-12-20T01:38:21;7.00;;;5.70;;
76848;SDS011;65814;51.134;16.980;2023-12-20T01:40:49;8.30;;;5.00;;
76848;SDS011;65814;51.134;16.980;2023-12-20T01:43:17;6.40;;;4.60;;
76848;SDS011;65814;51.134;16.980;2023-12-20T01:45:45;6.70;;;5.00;;
76848;SDS011;65814;51.134;16.980;2023-12-20T01:48:14;8.10;;;5.80;;
76848;SDS011;65814;51.134;16.980;2023-12-20T01:50:44;5.70;;;4.60;;
76848;SDS011;65814;51.134;16.980;2023-12-20T01:53:13;7.00;;;5.90;;
76848;SDS011;65814;51.134;16.980;2023-12-20T01:55:41;7.80;;;5.40;;
76848;SDS011;65814;51.134;16.980;2023-12-20T01:58:10;5.90;;;5.30;;
76848;SDS011;65814;51.134;16.980;2023-12-20T02:00:39;6.60;;;5.30;;
76848;SDS011;65814;51.134;16.980;2023-12-20T02:03:07;6.90;;;4.70;;
76848;SDS011;65814;51.134;16.980;2023-12-20T02:05:36;4.90;;;4.40;;
76848;SDS011;65814;51.134;16.980;2023-12-20T02:08:06;6.60;;;4.80;;
76848;SDS011;65814;51.134;16.980;2023-12-20T02:10:34;6.30;;;4.80;;
76848;SDS011;65814;51.134;16.980;2023-12-20T02:13:03;5.80;;;4.70;;
76848;SDS011;65814;51.134;16.980;2023-12-20T02:15:32;5.40;;;4.10;;
76848;SDS011;65814;51.134;16.980;2023-12-20T02:17:59;6.80;;;4.60;;
76848;SDS011;65814;51.134;16.980;2023-12-20T02:20:28;5.60;;;4.50;;
76848;SDS011;65814;51.134;16.980;2023-12-20T02:22:56;5.20;;;4.20;;
76848;SDS011;65814;51.134;16.980;2023-12-20T02:25:24;5.10;;;4.00;;
76848;SDS011;65814;51.134;16.980;2023-12-20T02:27:54;5.70;;;3.70;;
76848;SDS011;65814;51.134;16.980;2023-12-20T02:30:25;4.90;;;3.60;;
76848;SDS011;65814;51.134;16.980;2023-12-20T02:32:53;5.50;;;3.80;;
76848;SDS011;65814;51.134;16.980;2023-12-20T02:35:21;6.40;;;4.80;;
76848;SDS011;65814;51.134;16.980;2023-12-20T02:37:49;4.20;;;3.50;;
76848;SDS011;65814;51.134;16.980;2023-12-20T02:40:17;5.70;;;3.70;;
76848;SDS011;65814;51.134;16.980;2023-12-20T02:42:45;5.00;;;3.50;;
76848;SDS011;65814;51.134;16.980;2023-12-20T02:45:13;4.80;;;3.60;;
76848;SDS011;65814;51.134;16.980;2023-12-20T02:47:41;6.00;;;3.70;;
76848;SDS011;65814;51.134;16.980;2023-12-20T02:50:09;4.70;;;3.20;;
76848;SDS011;65814;51.134;16.980;2023-12-20T02:52:38;3.60;;;2.90;;
76848;SDS011;65814;51.134;16.980;2023-12-20T02:55:06;4.40;;;3.30;;
76848;SDS011;65814;51.134;16.980;2023-12-20T02:57:34;6.50;;;3.70;;
76848;SDS011;65814;51.134;16.980;2023-12-20T03:00:04;4.00;;;2.60;;
76848;SDS011;65814;51.134;16.980;2023-12-20T03:02:32;5.20;;;3.70;;
76848;SDS011;65814;51.134;16.980;2023-12-20T03:05:00;4.10;;;3.20;;
76848;SDS011;65814;51.134;16.980;2023-12-20T03:07:29;4.30;;;3.80;;
76848;SDS011;65814;51.134;16.980;2023-12-20T03:09:57;4.40;;;3.00;;
76848;SDS011;65814;51.134;16.980;2023-12-20T03:12:45;4.30;;;3.00;;
76848;SDS011;65814;51.134;16.980;2023-12-20T03:15:13;4.00;;;2.80;;
76848;SDS011;65814;51.134;16.980;2023-12-20T03:17:41;4.60;;;2.70;;
76848;SDS011;65814;51.134;16.980;2023-12-20T03:20:10;3.90;;;2.70;;
76848;SDS011;65814;51.134;16.980;2023-12-20T03:22:38;4.90;;;2.60;;
76848;SDS011;65814;51.134;16.980;2023-12-20T03:25:09;4.10;;;2.90;;
76848;SDS011;65814;51.134;16.980;2023-12-20T03:27:38;4.50;;;3.00;;
76848;SDS011;65814;51.134;16.980;2023-12-20T03:30:06;2.90;;;2.20;;
76848;SDS011;65814;51.134;16.980;2023-12-20T03:32:35;4.70;;;2.50;;
76848;SDS011;65814;51.134;16.980;2023-12-20T03:35:04;3.40;;;2.10;;
76848;SDS011;65814;51.134;16.980;2023-12-20T03:37:32;3.70;;;2.10;;
76848;SDS011;65814;51.134;16.980;2023-12-20T03:40:00;2.60;;;2.00;;
76848;SDS011;65814;51.134;16.980;2023-12-20T03:42:29;3.00;;;2.00;;
76848;SDS011;65814;51.134;16.980;2023-12-20T03:44:57;3.00;;;1.80;;
76848;SDS011;65814;51.134;16.980;2023-12-20T03:47:24;2.60;;;1.80;;
76848;SDS011;65814;51.134;16.980;2023-12-20T03:49:53;2.60;;;2.30;;
76848;SDS011;65814;51.134;16.980;2023-12-20T03:52:20;2.40;;;2.20;;
76848;SDS011;65814;51.134;16.980;2023-12-20T03:54:49;1.70;;;1.30;;
76848;SDS011;65814;51.134;16.980;2023-12-20T03:57:17;2.50;;;2.30;;
76848;SDS011;65814;51.134;16.980;2023-12-20T03:59:45;2.40;;;2.10;;
76848;SDS011;65814;51.134;16.980;2023-12-20T04:02:14;2.40;;;1.80;;
76848;SDS011;65814;51.134;16.980;2023-12-20T04:04:43;4.30;;;1.70;;
76848;SDS011;65814;51.134;16.980;2023-12-20T04:07:11;2.50;;;2.00;;
76848;SDS011;65814;51.134;16.980;2023-12-20T04:09:40;2.90;;;2.20;;
76848;SDS011;65814;51.134;16.980;2023-12-20T04:12:08;2.60;;;1.70;;
76848;SDS011;65814;51.134;16.980;2023-12-20T04:14:36;3.30;;;2.50;;
76848;SDS011;65814;51.134;16.980;2023-12-20T04:17:04;2.50;;;1.70;;
76848;SDS011;65814;51.134;16.980;2023-12-20T04:19:32;2.90;;;2.00;;
76848;SDS011;65814;51.134;16.980;2023-12-20T04:22:00;2.90;;;2.00;;
76848;SDS011;65814;51.134;16.980;2023-12-20T04:24:28;2.10;;;1.70;;
76848;SDS011;65814;51.134;16.980;2023-12-20T04:26:56;2.20;;;1.60;;
76848;SDS011;65814;51.134;16.980;2023-12-20T04:29:24;2.50;;;1.70;;
76848;SDS011;65814;51.134;16.980;2023-12-20T04:31:52;2.40;;;1.40;;
76848;SDS011;65814;51.134;16.980;2023-12-20T04:34:20;2.80;;;1.80;;
76848;SDS011;65814;51.134;16.980;2023-12-20T04:36:48;1.80;;;1.40;;
76848;SDS011;65814;51.134;16.980;2023-12-20T04:41:50;2.10;;;1.50;;
76848;SDS011;65814;51.134;16.980;2023-12-20T04:44:18;2.40;;;1.50;;
76848;SDS011;65814;51.134;16.980;2023-12-20T04:46:46;1.90;;;1.50;;
76848;SDS011;65814;51.134;16.980;2023-12-20T04:49:14;2.60;;;2.10;;
76848;SDS011;65814;51.134;16.980;2023-12-20T04:51:42;2.20;;;1.60;;
76848;SDS011;65814;51.134;16.980;2023-12-20T04:54:10;2.80;;;2.00;;
76848;SDS011;65814;51.134;16.980;2023-12-20T04:56:38;3.90;;;1.80;;
76848;SDS011;65814;51.134;16.980;2023-12-20T04:59:06;2.20;;;1.70;;
76848;SDS011;65814;51.134;16.980;2023-12-20T05:01:34;1.80;;;1.30;;
76848;SDS011;65814;51.134;16.980;2023-12-20T05:04:02;2.30;;;1.60;;
76848;SDS011;65814;51.134;16.980;2023-12-20T05:06:30;2.20;;;1.50;;
76848;SDS011;65814;51.134;16.980;2023-12-20T05:08:58;2.00;;;1.10;;
76848;SDS011;65814;51.134;16.980;2023-12-20T05:11:25;1.70;;;1.40;;
76848;SDS011;65814;51.134;16.980;2023-12-20T05:13:54;2.40;;;1.60;;
76848;SDS011;65814;51.134;16.980;2023-12-20T05:16:26;1.90;;;1.50;;
76848;SDS011;65814;51.134;16.980;2023-12-20T05:18:54;2.70;;;1.60;;
76848;SDS011;65814;51.134;16.980;2023-12-20T05:21:22;1.40;;;1.10;;
76848;SDS011;65814;51.134;16.980;2023-12-20T05:23:50;2.00;;;1.30;;
76848;SDS011;65814;51.134;16.980;2023-12-20T05:26:18;2.40;;;1.30;;
76848;SDS011;65814;51.134;16.980;2023-12-20T05:28:46;1.90;;;1.40;;
76848;SDS011;65814;51.134;16.980;2023-12-20T05:31:14;1.90;;;1.40;;
76848;SDS011;65814;51.134;16.980;2023-12-20T05:33:42;1.90;;;1.40;;
76848;SDS011;65814;51.134;16.980;2023-12-20T05:36:10;1.60;;;1.20;;
76848;SDS011;65814;51.134;16.980;2023-12-20T05:38:41;1.70;;;1.40;;
76848;SDS011;65814;51.134;16.980;2023-12-20T05:41:09;2.10;;;1.20;;
76848;SDS011;65814;51.134;16.980;2023-12-20T05:43:36;1.80;;;1.40;;
76848;SDS011;65814;51.134;16.980;2023-12-20T05:46:05;1.90;;;1.30;;
76848;SDS011;65814;51.134;16.980;2023-12-20T05:48:33;3.50;;;1.80;;
76848;SDS011;65814;51.134;16.980;2023-12-20T05:51:01;3.00;;;1.80;;
76848;SDS011;65814;51.134;16.980;2023-12-20T05:53:28;2.20;;;1.60;;
76848;SDS011;65814;51.134;16.980;2023-12-20T05:55:56;1.70;;;1.50;;
76848;SDS011;65814;51.134;16.980;2023-12-20T05:58:24;2.90;;;1.80;;
76848;SDS011;65814;51.134;16.980;2023-12-20T06:00:52;2.10;;;1.50;;
76848;SDS011;65814;51.134;16.980;2023-12-20T06:03:20;2.80;;;2.10;;
76848;SDS011;65814;51.134;16.980;2023-12-20T06:05:48;2.50;;;1.80;;
76848;SDS011;65814;51.134;16.980;2023-12-20T06:08:18;2.60;;;1.70;;
76848;SDS011;65814;51.134;16.980;2023-12-20T06:10:46;2.60;;;1.90;;
76848;SDS011;65814;51.134;16.980;2023-12-20T06:13:13;2.40;;;1.80;;
76848;SDS011;65814;51.134;16.980;2023-12-20T06:15:41;2.10;;;1.50;;
76848;SDS011;65814;51.134;16.980;2023-12-20T06:18:09;2.00;;;1.90;;
76848;SDS011;65814;51.134;16.980;2023-12-20T06:20:37;2.70;;;1.70;;
76848;SDS011;65814;51.134;16.980;2023-12-20T06:23:05;2.90;;;1.90;;
76848;SDS011;65814;51.134;16.980;2023-12-20T06:25:33;2.10;;;1.80;;
76848;SDS011;65814;51.134;16.980;2023-12-20T06:28:02;2.40;;;1.80;;
76848;SDS011;65814;51.134;16.980;2023-12-20T06:30:30;2.00;;;1.60;;
76848;SDS011;65814;51.134;16.980;2023-12-20T06:33:00;3.00;;;1.70;;
76848;SDS011;65814;51.134;16.980;2023-12-20T06:35:28;1.80;;;1.40;;
76848;SDS011;65814;51.134;16.980;2023-12-20T06:37:57;2.40;;;1.90;;
76848;SDS011;65814;51.134;16.980;2023-12-20T06:40:25;2.00;;;1.60;;
76848;SDS011;65814;51.134;16.980;2023-12-20T06:42:53;1.80;;;1.40;;
76848;SDS011;65814;51.134;16.980;2023-12-20T06:45:35;2.30;;;1.60;;
76848;SDS011;65814;51.134;16.980;2023-12-20T06:48:03;2.30;;;1.50;;
76848;SDS011;65814;51.134;16.980;2023-12-20T06:50:32;2.70;;;1.90;;
76848;SDS011;65814;51.134;16.980;2023-12-20T06:53:00;2.30;;;1.40;;
76848;SDS011;65814;51.134;16.980;2023-12-20T06:55:35;2.80;;;1.70;;
76848;SDS011;65814;51.134;16.980;2023-12-20T06:58:03;3.40;;;1.80;;
76848;SDS011;65814;51.134;16.980;2023-12-20T07:00:32;2.30;;;1.60;;
76848;SDS011;65814;51.134;16.980;2023-12-20T07:03:01;2.10;;;1.60;;
76848;SDS011;65814;51.134;16.980;2023-12-20T07:05:29;2.00;;;1.70;;
76848;SDS011;65814;51.134;16.980;2023-12-20T07:07:57;2.90;;;1.50;;
76848;SDS011;65814;51.134;16.980;2023-12-20T07:10:25;3.50;;;1.90;;
76848;SDS011;65814;51.134;16.980;2023-12-20T07:12:53;2.40;;;1.50;;
76848;SDS011;65814;51.134;16.980;2023-12-20T07:15:23;1.50;;;1.20;;
76848;SDS011;65814;51.134;16.980;2023-12-20T07:17:53;2.10;;;1.70;;
76848;SDS011;65814;51.134;16.980;2023-12-20T07:20:21;2.40;;;1.90;;
76848;SDS011;65814;51.134;16.980;2023-12-20T07:22:49;2.10;;;1.50;;
76848;SDS011;65814;51.134;16.980;2023-12-20T07:25:18;2.40;;;1.50;;
76848;SDS011;65814;51.134;16.980;2023-12-20T07:27:47;1.90;;;1.40;;
76848;SDS011;65814;51.134;16.980;2023-12-20T07:30:16;2.20;;;1.30;;
76848;SDS011;65814;51.134;16.980;2023-12-20T07:32:44;3.20;;;1.40;;
76848;SDS011;65814;51.134;16.980;2023-12-20T07:35:12;2.20;;;1.40;;
76848;SDS011;65814;51.134;16.980;2023-12-20T07:37:41;1.60;;;1.20;;
76848;SDS011;65814;51.134;16.980;2023-12-20T07:40:09;1.70;;;1.30;;
76848;SDS011;65814;51.134;16.980;2023-12-20T07:42:38;1.80;;;1.40;;
76848;SDS011;65814;51.134;16.980;2023-12-20T07:45:06;1.00;;;0.90;;
76848;SDS011;65814;51.134;16.980;2023-12-20T07:47:34;1.30;;;1.00;;
76848;SDS011;65814;51.134;16.980;2023-12-20T07:50:03;1.30;;;1.00;;
76848;SDS011;65814;51.134;16.980;2023-12-20T07:52:31;1.50;;;1.40;;
76848;SDS011;65814;51.134;16.980;2023-12-20T07:54:59;1.60;;;1.30;;
76848;SDS011;65814;51.134;16.980;2023-12-20T07:57:30;1.70;;;1.20;;
76848;SDS011;65814;51.134;16.980;2023-12-20T07:59:58;0.90;;;0.80;;
76848;SDS011;65814;51.134;16.980;2023-12-20T08:02:27;2.20;;;1.20;;
76848;SDS011;65814;51.134;16.980;2023-12-20T08:04:54;2.30;;;1.30;;
76848;SDS011;65814;51.134;16.980;2023-12-20T08:07:22;1.50;;;1.10;;
76848;SDS011;65814;51.134;16.980;2023-12-20T08:09:51;2.60;;;1.20;;
76848;SDS011;65814;51.134;16.980;2023-12-20T08:12:20;2.30;;;1.40;;
76848;SDS011;65814;51.134;16.980;2023-12-20T08:14:48;2.00;;;1.30;;
76848;SDS011;65814;51.134;16.980;2023-12-20T08:17:17;1.60;;;1.50;;
76848;SDS011;65814;51.134;16.980;2023-12-20T08:19:46;1.80;;;1.20;;
76848;SDS011;65814;51.134;16.980;2023-12-20T08:22:14;1.70;;;1.20;;
76848;SDS011;65814;51.134;16.980;2023-12-20T08:24:42;2.20;;;1.30;;
76848;SDS011;65814;51.134;16.980;2023-12-20T08:27:10;2.10;;;1.50;;
76848;SDS011;65814;51.134;16.980;2023-12-20T08:29:38;3.40;;;2.00;;
76848;SDS011;65814;51.134;16.980;2023-12-20T08:32:06;2.60;;;1.50;;
76848;SDS011;65814;51.134;16.980;2023-12-20T08:34:34;2.50;;;1.80;;
76848;SDS011;65814;51.134;16.980;2023-12-20T08:37:03;2.10;;;1.20;;
76848;SDS011;65814;51.134;16.980;2023-12-20T08:39:33;2.20;;;1.60;;
76848;SDS011;65814;51.134;16.980;2023-12-20T08:42:01;1.30;;;1.00;;
76848;SDS011;65814;51.134;16.980;2023-12-20T08:44:29;1.70;;;1.20;;
76848;SDS011;65814;51.134;16.980;2023-12-20T08:46:57;1.40;;;1.30;;
76848;SDS011;65814;51.134;16.980;2023-12-20T08:49:25;2.90;;;1.50;;
76848;SDS011;65814;51.134;16.980;2023-12-20T08:51:53;1.90;;;1.20;;
76848;SDS011;65814;51.134;16.980;2023-12-20T08:54:21;1.80;;;1.20;;
76848;SDS011;65814;51.134;16.980;2023-12-20T08:56:49;1.30;;;1.00;;
76848;SDS011;65814;51.134;16.980;2023-12-20T08:59:17;1.40;;;0.80;;
76848;SDS011;65814;51.134;16.980;2023-12-20T09:01:47;1.60;;;1.40;;
76848;SDS011;65814;51.134;16.980;2023-12-20T09:04:16;1.20;;;0.80;;
76848;SDS011;65814;51.134;16.980;2023-12-20T09:06:44;2.50;;;0.90;;
76848;SDS011;65814;51.134;16.980;2023-12-20T09:09:12;1.50;;;1.40;;
76848;SDS011;65814;51.134;16.980;2023-12-20T09:11:44;3.00;;;1.20;;
76848;SDS011;65814;51.134;16.980;2023-12-20T09:14:14;1.60;;;1.20;;
76848;SDS011;65814;51.134;16.980;2023-12-20T09:16:42;1.40;;;1.20;;
76848;SDS011;65814;51.134;16.980;2023-12-20T09:19:10;1.80;;;1.20;;
76848;SDS011;65814;51.134;16.980;2023-12-20T09:21:38;1.30;;;1.00;;
76848;SDS011;65814;51.134;16.980;2023-12-20T09:24:06;1.10;;;0.90;;
76848;SDS011;65814;51.134;16.980;2023-12-20T09:26:35;2.30;;;1.40;;
76848;SDS011;65814;51.134;16.980;2023-12-20T09:29:03;1.40;;;1.10;;
76848;SDS011;65814;51.134;16.980;2023-12-20T09:31:31;3.10;;;1.80;;
76848;SDS011;65814;51.134;16.980;2023-12-20T09:33:59;2.70;;;2.00;;
76848;SDS011;65814;51.134;16.980;2023-12-20T09:36:28;3.30;;;2.70;;
76848;SDS011;65814;51.134;16.980;2023-12-20T09:38:57;3.70;;;3.00;;
76848;SDS011;65814;51.134;16.980;2023-12-20T09:41:25;3.50;;;2.70;;
76848;SDS011;65814;51.134;16.980;2023-12-20T09:43:57;4.10;;;2.70;;
76848;SDS011;65814;51.134;16.980;2023-12-20T09:46:27;3.90;;;2.80;;
76848;SDS011;65814;51.134;16.980;2023-12-20T09:48:58;5.00;;;2.80;;
76848;SDS011;65814;51.134;16.980;2023-12-20T09:51:27;5.30;;;3.10;;
76848;SDS011;65814;51.134;16.980;2023-12-20T09:53:57;3.40;;;2.40;;
76848;SDS011;65814;51.134;16.980;2023-12-20T09:56:25;6.30;;;3.00;;
76848;SDS011;65814;51.134;16.980;2023-12-20T09:58:53;4.00;;;2.50;;
76848;SDS011;65814;51.134;16.980;2023-12-20T10:01:22;4.40;;;2.80;;
76848;SDS011;65814;51.134;16.980;2023-12-20T10:03:51;3.20;;;2.40;;
76848;SDS011;65814;51.134;16.980;2023-12-20T10:06:22;4.20;;;2.60;;
76848;SDS011;65814;51.134;16.980;2023-12-20T10:08:50;3.40;;;2.60;;
76848;SDS011;65814;51.134;16.980;2023-12-20T10:11:18;3.20;;;2.50;;
76848;SDS011;65814;51.134;16.980;2023-12-20T10:13:47;2.70;;;1.90;;
76848;SDS011;65814;51.134;16.980;2023-12-20T10:16:15;3.60;;;3.00;;
76848;SDS011;65814;51.134;16.980;2023-12-20T10:18:44;3.30;;;2.10;;
76848;SDS011;65814;51.134;16.980;2023-12-20T10:21:13;3.00;;;2.50;;
76848;SDS011;65814;51.134;16.980;2023-12-20T10:23:41;3.60;;;2.40;;
76848;SDS011;65814;51.134;16.980;2023-12-20T10:26:09;2.70;;;2.00;;
76848;SDS011;65814;51.134;16.980;2023-12-20T10:28:37;2.90;;;1.90;;
76848;SDS011;65814;51.134;16.980;2023-12-20T10:31:06;2.40;;;1.90;;
76848;SDS011;65814;51.134;16.980;2023-12-20T10:33:34;3.80;;;2.50;;
76848;SDS011;65814;51.134;16.980;2023-12-20T10:36:03;4.10;;;2.10;;
76848;SDS011;65814;51.134;16.980;2023-12-20T10:38:31;3.70;;;2.30;;
76848;SDS011;65814;51.134;16.980;2023-12-20T10:40:59;4.90;;;2.70;;
76848;SDS011;65814;51.134;16.980;2023-12-20T10:43:30;5.80;;;2.80;;
76848;SDS011;65814;51.134;16.980;2023-12-20T10:46:00;3.10;;;2.10;;
76848;SDS011;65814;51.134;16.980;2023-12-20T10:48:28;3.60;;;2.30;;
76848;SDS011;65814;51.134;16.980;2023-12-20T10:50:58;4.20;;;2.20;;
76848;SDS011;65814;51.134;16.980;2023-12-20T10:53:27;5.20;;;2.20;;
76848;SDS011;65814;51.134;16.980;2023-12-20T10:55:55;3.60;;;2.30;;
76848;SDS011;65814;51.134;16.980;2023-12-20T10:58:25;3.10;;;2.30;;
76848;SDS011;65814;51.134;16.980;2023-12-20T11:00:56;3.00;;;1.60;;
76848;SDS011;65814;51.134;16.980;2023-12-20T11:03:32;4.20;;;2.00;;
76848;SDS011;65814;51.134;16.980;2023-12-20T11:06:26;2.50;;;1.90;;
76848;SDS011;65814;51.134;16.980;2023-12-20T11:11:58;3.70;;;2.00;;
76848;SDS011;65814;51.134;16.980;2023-12-20T11:14:46;3.00;;;1.90;;
76848;SDS011;65814;51.134;16.980;2023-12-20T11:17:15;3.00;;;2.30;;
76848;SDS011;65814;51.134;16.980;2023-12-20T11:22:26;3.20;;;2.20;;
76848;SDS011;65814;51.134;16.980;2023-12-20T11:25:06;4.00;;;1.80;;
76848;SDS011;65814;51.134;16.980;2023-12-20T11:27:42;4.10;;;2.00;;
76848;SDS011;65814;51.134;16.980;2023-12-20T11:30:13;2.30;;;1.60;;
76848;SDS011;65814;51.134;16.980;2023-12-20T11:32:42;4.80;;;2.00;;
76848;SDS011;65814;51.134;16.980;2023-12-20T11:37:39;2.90;;;1.90;;
76848;SDS011;65814;51.134;16.980;2023-12-20T11:40:16;3.70;;;1.60;;
76848;SDS011;65814;51.134;16.980;2023-12-20T11:42:48;2.30;;;1.20;;
76848;SDS011;65814;51.134;16.980;2023-12-20T11:45:18;3.00;;;1.30;;
76848;SDS011;65814;51.134;16.980;2023-12-20T11:47:51;1.60;;;1.20;;
76848;SDS011;65814;51.134;16.980;2023-12-20T11:50:21;4.30;;;1.40;;
76848;SDS011;65814;51.134;16.980;2023-12-20T11:52:51;2.30;;;2.10;;
76848;SDS011;65814;51.134;16.980;2023-12-20T11:55:20;1.90;;;1.40;;
76848;SDS011;65814;51.134;16.980;2023-12-20T11:57:48;4.10;;;1.40;;
76848;SDS011;65814;51.134;16.980;2023-12-20T12:00:17;2.20;;;1.40;;
76848;SDS011;65814;51.134;16.980;2023-12-20T12:02:56;2.40;;;1.40;;
76848;SDS011;65814;51.134;16.980;2023-12-20T12:05:30;2.10;;;1.50;;
76848;SDS011;65814;51.134;16.980;2023-12-20T12:07:59;2.80;;;1.50;;
76848;SDS011;65814;51.134;16.980;2023-12-20T12:10:27;1.80;;;1.30;;
76848;SDS011;65814;51.134;16.980;2023-12-20T12:12:55;1.60;;;1.10;;
76848;SDS011;65814;51.134;16.980;2023-12-20T12:15:24;2.50;;;1.30;;
76848;SDS011;65814;51.134;16.980;2023-12-20T12:17:56;1.70;;;1.50;;
76848;SDS011;65814;51.134;16.980;2023-12-20T12:20:25;3.70;;;1.60;;
76848;SDS011;65814;51.134;16.980;2023-12-20T12:23:03;3.30;;;1.50;;
76848;SDS011;65814;51.134;16.980;2023-12-20T12:25:34;2.50;;;1.60;;
76848;SDS011;65814;51.134;16.980;2023-12-20T12:28:09;2.70;;;1.30;;
76848;SDS011;65814;51.134;16.980;2023-12-20T12:30:39;2.90;;;1.90;;
76848;SDS011;65814;51.134;16.980;2023-12-20T12:33:20;3.50;;;1.40;;
76848;SDS011;65814;51.134;16.980;2023-12-20T12:35:49;1.90;;;1.10;;
76848;SDS011;65814;51.134;16.980;2023-12-20T12:38:19;1.50;;;1.20;;
76848;SDS011;65814;51.134;16.980;2023-12-20T12:40:49;2.20;;;1.50;;
76848;SDS011;65814;51.134;16.980;2023-12-20T12:43:17;2.30;;;1.90;;
76848;SDS011;65814;51.134;16.980;2023-12-20T12:45:46;3.80;;;1.30;;
76848;SDS011;65814;51.134;16.980;2023-12-20T12:48:14;1.60;;;1.00;;
76848;SDS011;65814;51.134;16.980;2023-12-20T12:50:43;1.50;;;1.30;;
76848;SDS011;65814;51.134;16.980;2023-12-20T12:53:11;2.80;;;1.10;;
76848;SDS011;65814;51.134;16.980;2023-12-20T12:55:39;2.20;;;1.40;;
76848;SDS011;65814;51.134;16.980;2023-12-20T12:58:08;3.70;;;1.50;;
76848;SDS011;65814;51.134;16.980;2023-12-20T13:00:35;2.00;;;1.30;;
76848;SDS011;65814;51.134;16.980;2023-12-20T13:03:03;1.60;;;1.00;;
76848;SDS011;65814;51.134;16.980;2023-12-20T13:05:34;4.30;;;1.60;;
76848;SDS011;65814;51.134;16.980;2023-12-20T13:08:07;2.50;;;2.30;;
76848;SDS011;65814;51.134;16.980;2023-12-20T13:10:35;3.70;;;1.90;;
76848;SDS011;65814;51.134;16.980;2023-12-20T13:13:04;2.30;;;1.60;;
76848;SDS011;65814;51.134;16.980;2023-12-20T13:15:32;3.10;;;1.50;;
76848;SDS011;65814;51.134;16.980;2023-12-20T13:18:00;3.50;;;1.60;;
76848;SDS011;65814;51.134;16.980;2023-12-20T13:20:29;3.80;;;1.50;;
76848;SDS011;65814;51.134;16.980;2023-12-20T13:22:57;2.00;;;1.30;;
76848;SDS011;65814;51.134;16.980;2023-12-20T13:25:25;2.40;;;1.40;;
76848;SDS011;65814;51.134;16.980;2023-12-20T13:27:53;4.60;;;1.70;;
76848;SDS011;65814;51.134;16.980;2023-12-20T13:30:21;2.40;;;1.70;;
76848;SDS011;65814;51.134;16.980;2023-12-20T13:32:49;4.00;;;1.40;;
76848;SDS011;65814;51.134;16.980;2023-12-20T13:35:21;5.70;;;2.10;;
76848;SDS011;65814;51.134;16.980;2023-12-20T13:37:49;2.40;;;1.30;;
76848;SDS011;65814;51.134;16.980;2023-12-20T13:40:18;3.00;;;1.20;;
76848;SDS011;65814;51.134;16.980;2023-12-20T13:42:46;5.80;;;2.70;;
76848;SDS011;65814;51.134;16.980;2023-12-20T13:45:16;4.10;;;1.70;;
76848;SDS011;65814;51.134;16.980;2023-12-20T13:47:44;3.10;;;1.40;;
76848;SDS011;65814;51.134;16.980;2023-12-20T13:50:13;3.40;;;1.50;;
76848;SDS011;65814;51.134;16.980;2023-12-20T13:52:41;3.10;;;1.70;;
76848;SDS011;65814;51.134;16.980;2023-12-20T13:55:09;3.30;;;1.60;;
76848;SDS011;65814;51.134;16.980;2023-12-20T13:57:38;2.80;;;1.70;;
76848;SDS011;65814;51.134;16.980;2023-12-20T14:00:10;4.60;;;1.60;;
76848;SDS011;65814;51.134;16.980;2023-12-20T14:05:10;2.80;;;1.50;;
76848;SDS011;65814;51.134;16.980;2023-12-20T14:07:38;4.50;;;1.40;;
76848;SDS011;65814;51.134;16.980;2023-12-20T14:10:07;2.10;;;1.30;;
76848;SDS011;65814;51.134;16.980;2023-12-20T14:12:35;3.70;;;1.40;;
76848;SDS011;65814;51.134;16.980;2023-12-20T14:15:05;4.80;;;1.30;;
76848;SDS011;65814;51.134;16.980;2023-12-20T14:17:39;2.30;;;1.20;;
76848;SDS011;65814;51.134;16.980;2023-12-20T14:20:08;1.70;;;1.40;;
76848;SDS011;65814;51.134;16.980;2023-12-20T14:22:36;2.40;;;1.60;;
76848;SDS011;65814;51.134;16.980;2023-12-20T14:25:06;4.50;;;1.30;;
76848;SDS011;65814;51.134;16.980;2023-12-20T14:27:35;3.50;;;1.30;;
76848;SDS011;65814;51.134;16.980;2023-12-20T14:30:03;1.90;;;1.00;;
76848;SDS011;65814;51.134;16.980;2023-12-20T14:32:34;2.10;;;1.30;;
76848;SDS011;65814;51.134;16.980;2023-12-20T14:35:02;3.30;;;1.30;;
76848;SDS011;65814;51.134;16.980;2023-12-20T14:37:32;4.40;;;1.50;;
76848;SDS011;65814;51.134;16.980;2023-12-20T14:40:00;3.40;;;1.90;;
76848;SDS011;65814;51.134;16.980;2023-12-20T14:42:28;4.40;;;1.60;;
76848;SDS011;65814;51.134;16.980;2023-12-20T14:44:56;2.80;;;1.50;;
76848;SDS011;65814;51.134;16.980;2023-12-20T14:47:24;3.20;;;1.40;;
76848;SDS011;65814;51.134;16.980;2023-12-20T14:49:53;2.40;;;1.50;;
76848;SDS011;65814;51.134;16.980;2023-12-20T14:52:21;2.60;;;1.50;;
76848;SDS011;65814;51.134;16.980;2023-12-20T14:54:49;3.60;;;1.90;;
76848;SDS011;65814;51.134;16.980;2023-12-20T14:57:17;2.40;;;1.40;;